sensor_id;sensor_type;location;lat;lon;timestamp;pressure;altitude;pressure_sealevel;temperature;humidity
46876;BME280;32866;50.160;14.768;2022-09-24T00:01:09;99356.16;;;6.03;100.00
46876;BME280;32866;50.160;14.768;2022-09-24T00:03:35;99338.28;;;5.67;100.00
46876;BME280;32866;50.160;14.768;2022-09-24T00:06:02;99366.38;;;5.91;100.00
46876;BME280;32866;50.160;14.768;2022-09-24T00:08:28;99361.31;;;5.93;100.00
46876;BME280;32866;50.160;14.768;2022-09-24T00:10:53;99358.91;;;5.65;100.00
46876;BME280;32866;50.160;14.768;2022-09-24T00:13:20;99357.38;;;5.64;100.00
46876;BME280;32866;50.160;14.768;2022-09-24T00:15:47;99362.06;;;5.60;100.00
46876;BME280;32866;50.160;14.768;2022-09-24T00:18:16;99365.22;;;5.54;100.00
46876;BME280;32866;50.160;14.768;2022-09-24T00:20:42;99353.19;;;5.55;100.00
46876;BME280;32866;50.160;14.768;2022-09-24T00:23:09;99356.78;;;5.45;100.00
46876;BME280;32866;50.160;14.768;2022-09-24T00:25:43;99353.75;;;5.36;100.00
46876;BME280;32866;50.160;14.768;2022-09-24T00:28:27;99317.94;;;5.07;100.00
46876;BME280;32866;50.160;14.768;2022-09-24T00:30:53;99347.56;;;5.35;100.00
46876;BME280;32866;50.160;14.768;2022-09-24T00:33:21;99345.69;;;5.29;100.00
46876;BME280;32866;50.160;14.768;2022-09-24T00:35:47;99303.28;;;4.97;100.00
46876;BME280;32866;50.160;14.768;2022-09-24T00:38:12;99297.91;;;4.90;100.00
46876;BME280;32866;50.160;14.768;2022-09-24T00:40:37;99314.50;;;4.99;100.00
46876;BME280;32866;50.160;14.768;2022-09-24T00:46:06;99333.31;;;5.20;100.00
46876;BME280;32866;50.160;14.768;2022-09-24T00:48:33;99288.19;;;4.92;100.00
46876;BME280;32866;50.160;14.768;2022-09-24T00:51:03;99280.81;;;4.93;100.00
46876;BME280;32866;50.160;14.768;2022-09-24T00:53:29;99332.22;;;5.14;100.00
46876;BME280;32866;50.160;14.768;2022-09-24T00:55:58;99324.19;;;5.00;100.00
46876;BME280;32866;50.160;14.768;2022-09-24T00:58:25;99318.88;;;5.31;100.00
46876;BME280;32866;50.160;14.768;2022-09-24T01:00:57;99292.13;;;4.88;100.00
46876;BME280;32866;50.160;14.768;2022-09-24T01:03:26;99332.00;;;5.36;100.00
46876;BME280;32866;50.160;14.768;2022-09-24T01:05:52;99324.59;;;5.40;100.00
46876;BME280;32866;50.160;14.768;2022-09-24T01:08:18;99317.94;;;5.48;100.00
46876;BME280;32866;50.160;14.768;2022-09-24T01:16:21;99321.25;;;5.25;100.00
46876;BME280;32866;50.160;14.768;2022-09-24T01:19:16;99316.47;;;5.40;100.00
46876;BME280;32866;50.160;14.768;2022-09-24T01:21:50;99319.22;;;5.36;100.00
46876;BME280;32866;50.160;14.768;2022-09-24T01:27:42;99295.31;;;4.75;100.00
46876;BME280;32866;50.160;14.768;2022-09-24T01:30:11;99316.03;;;5.04;100.00
46876;BME280;32866;50.160;14.768;2022-09-24T01:32:44;99318.97;;;5.20;100.00
46876;BME280;32866;50.160;14.768;2022-09-24T01:35:14;99316.53;;;5.29;100.00
46876;BME280;32866;50.160;14.768;2022-09-24T01:37:45;99318.38;;;5.01;100.00
46876;BME280;32866;50.160;14.768;2022-09-24T01:40:17;99294.47;;;4.82;100.00
46876;BME280;32866;50.160;14.768;2022-09-24T01:42:43;99309.06;;;4.99;100.00
46876;BME280;32866;50.160;14.768;2022-09-24T01:45:10;99308.94;;;5.13;100.00
46876;BME280;32866;50.160;14.768;2022-09-24T01:47:38;99273.47;;;4.90;100.00
46876;BME280;32866;50.160;14.768;2022-09-24T01:50:07;99296.59;;;5.05;100.00
46876;BME280;32866;50.160;14.768;2022-09-24T01:52:57;99263.97;;;4.67;100.00
46876;BME280;32866;50.160;14.768;2022-09-24T01:55:26;99289.56;;;5.11;100.00
46876;BME280;32866;50.160;14.768;2022-09-24T01:57:59;99295.78;;;5.12;100.00
46876;BME280;32866;50.160;14.768;2022-09-24T02:00:27;99285.75;;;5.05;100.00
46876;BME280;32866;50.160;14.768;2022-09-24T02:03:18;99289.66;;;5.00;100.00
46876;BME280;32866;50.160;14.768;2022-09-24T02:05:56;99285.09;;;4.90;100.00
46876;BME280;32866;50.160;14.768;2022-09-24T02:08:37;99291.28;;;4.91;100.00
46876;BME280;32866;50.160;14.768;2022-09-24T02:11:06;99280.78;;;4.96;100.00
46876;BME280;32866;50.160;14.768;2022-09-24T02:13:35;99287.50;;;4.85;100.00
46876;BME280;32866;50.160;14.768;2022-09-24T02:16:04;99281.22;;;4.91;100.00
46876;BME280;32866;50.160;14.768;2022-09-24T02:18:34;99282.41;;;4.87;100.00
46876;BME280;32866;50.160;14.768;2022-09-24T02:21:03;99284.34;;;4.90;100.00
46876;BME280;32866;50.160;14.768;2022-09-24T02:23:32;99285.09;;;4.90;100.00
46876;BME280;32866;50.160;14.768;2022-09-24T02:26:01;99244.41;;;4.41;100.00
46876;BME280;32866;50.160;14.768;2022-09-24T02:28:26;99261.84;;;4.86;100.00
46876;BME280;32866;50.160;14.768;2022-09-24T02:30:58;99295.66;;;4.77;100.00
46876;BME280;32866;50.160;14.768;2022-09-24T02:33:26;99245.53;;;4.48;100.00
46876;BME280;32866;50.160;14.768;2022-09-24T02:36:13;99285.91;;;4.87;100.00
46876;BME280;32866;50.160;14.768;2022-09-24T02:38:38;99267.06;;;4.65;100.00
46876;BME280;32866;50.160;14.768;2022-09-24T02:41:04;99282.78;;;4.89;100.00
46876;BME280;32866;50.160;14.768;2022-09-24T02:43:32;99281.66;;;4.82;100.00
46876;BME280;32866;50.160;14.768;2022-09-24T02:46:00;99258.97;;;4.62;100.00
46876;BME280;32866;50.160;14.768;2022-09-24T02:48:25;99245.25;;;4.31;100.00
46876;BME280;32866;50.160;14.768;2022-09-24T02:50:51;99273.38;;;5.00;100.00
46876;BME280;32866;50.160;14.768;2022-09-24T02:53:16;99230.06;;;4.82;100.00
46876;BME280;32866;50.160;14.768;2022-09-24T02:55:41;99263.88;;;5.19;100.00
46876;BME280;32866;50.160;14.768;2022-09-24T02:58:07;99266.38;;;5.03;100.00
46876;BME280;32866;50.160;14.768;2022-09-24T03:00:32;99267.59;;;4.95;100.00
46876;BME280;32866;50.160;14.768;2022-09-24T03:02:57;99249.38;;;4.50;100.00
46876;BME280;32866;50.160;14.768;2022-09-24T03:05:23;99211.84;;;4.41;100.00
46876;BME280;32866;50.160;14.768;2022-09-24T03:07:49;99259.09;;;4.93;100.00
46876;BME280;32866;50.160;14.768;2022-09-24T03:10:14;99257.66;;;4.77;100.00
46876;BME280;32866;50.160;14.768;2022-09-24T03:12:39;99258.06;;;4.76;100.00
46876;BME280;32866;50.160;14.768;2022-09-24T03:15:08;99262.69;;;4.79;100.00
46876;BME280;32866;50.160;14.768;2022-09-24T03:17:33;99266.19;;;4.79;100.00
46876;BME280;32866;50.160;14.768;2022-09-24T03:19:59;99219.63;;;4.36;100.00
46876;BME280;32866;50.160;14.768;2022-09-24T03:22:24;99211.69;;;4.56;100.00
46876;BME280;32866;50.160;14.768;2022-09-24T03:24:49;99209.41;;;4.54;100.00
46876;BME280;32866;50.160;14.768;2022-09-24T03:27:15;99208.44;;;4.75;100.00
46876;BME280;32866;50.160;14.768;2022-09-24T03:29:40;99252.34;;;5.08;100.00
46876;BME280;32866;50.160;14.768;2022-09-24T03:32:24;99256.38;;;4.89;100.00
46876;BME280;32866;50.160;14.768;2022-09-24T03:34:49;99212.13;;;4.54;100.00
46876;BME280;32866;50.160;14.768;2022-09-24T03:37:15;99214.94;;;4.40;100.00
46876;BME280;32866;50.160;14.768;2022-09-24T03:39:40;99246.94;;;4.63;100.00
46876;BME280;32866;50.160;14.768;2022-09-24T03:42:05;99247.59;;;4.78;100.00
46876;BME280;32866;50.160;14.768;2022-09-24T03:44:31;99226.75;;;4.64;100.00
46876;BME280;32866;50.160;14.768;2022-09-24T03:46:56;99247.72;;;5.05;100.00
46876;BME280;32866;50.160;14.768;2022-09-24T03:49:21;99241.69;;;4.87;100.00
46876;BME280;32866;50.160;14.768;2022-09-24T03:51:48;99225.59;;;4.65;100.00
46876;BME280;32866;50.160;14.768;2022-09-24T03:54:14;99239.47;;;4.74;100.00
46876;BME280;32866;50.160;14.768;2022-09-24T03:56:40;99238.50;;;4.95;100.00
46876;BME280;32866;50.160;14.768;2022-09-24T03:59:05;99242.72;;;5.00;100.00
46876;BME280;32866;50.160;14.768;2022-09-24T04:01:31;99229.00;;;4.76;100.00
46876;BME280;32866;50.160;14.768;2022-09-24T04:03:57;99229.47;;;5.06;100.00
46876;BME280;32866;50.160;14.768;2022-09-24T04:06:23;99190.09;;;4.87;100.00
46876;BME280;32866;50.160;14.768;2022-09-24T04:08:51;99231.56;;;4.91;100.00
46876;BME280;32866;50.160;14.768;2022-09-24T04:11:17;99226.59;;;4.82;100.00
46876;BME280;32866;50.160;14.768;2022-09-24T04:13:42;99196.59;;;4.55;100.00
46876;BME280;32866;50.160;14.768;2022-09-24T04:16:07;99223.91;;;4.78;100.00
46876;BME280;32866;50.160;14.768;2022-09-24T04:18:33;99187.72;;;4.51;100.00
46876;BME280;32866;50.160;14.768;2022-09-24T04:20:59;99232.78;;;4.82;100.00
46876;BME280;32866;50.160;14.768;2022-09-24T04:23:25;99217.09;;;4.63;100.00
46876;BME280;32866;50.160;14.768;2022-09-24T04:25:51;99231.75;;;4.73;100.00
46876;BME280;32866;50.160;14.768;2022-09-24T04:28:16;99233.31;;;4.70;100.00
46876;BME280;32866;50.160;14.768;2022-09-24T04:30:42;99219.44;;;4.99;100.00
46876;BME280;32866;50.160;14.768;2022-09-24T04:33:07;99212.19;;;4.89;100.00
46876;BME280;32866;50.160;14.768;2022-09-24T04:35:34;99208.47;;;4.72;100.00
46876;BME280;32866;50.160;14.768;2022-09-24T04:38:00;99222.16;;;4.61;100.00
46876;BME280;32866;50.160;14.768;2022-09-24T04:40:26;99199.44;;;4.40;100.00
46876;BME280;32866;50.160;14.768;2022-09-24T04:42:52;99224.31;;;4.77;100.00
46876;BME280;32866;50.160;14.768;2022-09-24T04:45:18;99233.81;;;4.96;100.00
46876;BME280;32866;50.160;14.768;2022-09-24T04:47:48;99217.34;;;4.76;100.00
46876;BME280;32866;50.160;14.768;2022-09-24T04:50:23;99224.44;;;4.62;100.00
46876;BME280;32866;50.160;14.768;2022-09-24T04:52:49;99223.25;;;4.67;100.00
46876;BME280;32866;50.160;14.768;2022-09-24T04:55:14;99201.72;;;4.45;100.00
46876;BME280;32866;50.160;14.768;2022-09-24T04:57:40;99227.09;;;4.70;100.00
46876;BME280;32866;50.160;14.768;2022-09-24T05:00:08;99221.25;;;4.75;100.00
46876;BME280;32866;50.160;14.768;2022-09-24T05:02:34;99204.75;;;4.55;100.00
46876;BME280;32866;50.160;14.768;2022-09-24T05:04:59;99213.94;;;4.68;100.00
46876;BME280;32866;50.160;14.768;2022-09-24T05:07:24;99168.50;;;4.34;100.00
46876;BME280;32866;50.160;14.768;2022-09-24T05:09:50;99223.34;;;4.56;100.00
46876;BME280;32866;50.160;14.768;2022-09-24T05:12:15;99191.81;;;4.24;100.00
46876;BME280;32866;50.160;14.768;2022-09-24T05:14:41;99231.88;;;4.55;100.00
46876;BME280;32866;50.160;14.768;2022-09-24T05:17:06;99201.13;;;4.23;100.00
46876;BME280;32866;50.160;14.768;2022-09-24T05:19:31;99231.38;;;4.67;100.00
46876;BME280;32866;50.160;14.768;2022-09-24T05:21:57;99241.75;;;4.79;100.00
46876;BME280;32866;50.160;14.768;2022-09-24T05:24:23;99193.16;;;4.47;100.00
46876;BME280;32866;50.160;14.768;2022-09-24T05:26:48;99237.34;;;4.96;100.00
46876;BME280;32866;50.160;14.768;2022-09-24T05:29:32;99251.69;;;4.97;100.00
46876;BME280;32866;50.160;14.768;2022-09-24T05:31:57;99239.66;;;4.98;100.00
46876;BME280;32866;50.160;14.768;2022-09-24T05:34:24;99192.28;;;4.61;100.00
46876;BME280;32866;50.160;14.768;2022-09-24T05:36:49;99228.34;;;5.03;100.00
46876;BME280;32866;50.160;14.768;2022-09-24T05:39:15;99245.41;;;5.04;100.00
46876;BME280;32866;50.160;14.768;2022-09-24T05:41:40;99229.47;;;5.06;100.00
46876;BME280;32866;50.160;14.768;2022-09-24T05:44:07;99202.00;;;5.00;100.00
46876;BME280;32866;50.160;14.768;2022-09-24T05:46:33;99251.53;;;5.46;100.00
46876;BME280;32866;50.160;14.768;2022-09-24T05:48:58;99251.91;;;5.48;100.00
46876;BME280;32866;50.160;14.768;2022-09-24T05:51:24;99251.44;;;5.56;100.00
46876;BME280;32866;50.160;14.768;2022-09-24T05:53:49;99248.66;;;5.60;100.00
46876;BME280;32866;50.160;14.768;2022-09-24T05:56:15;99203.47;;;5.39;100.00
46876;BME280;32866;50.160;14.768;2022-09-24T05:58:41;99235.91;;;5.84;100.00
46876;BME280;32866;50.160;14.768;2022-09-24T06:01:06;99202.75;;;5.66;100.00
46876;BME280;32866;50.160;14.768;2022-09-24T06:03:31;99242.69;;;6.03;100.00
46876;BME280;32866;50.160;14.768;2022-09-24T06:05:57;99231.38;;;6.05;100.00
46876;BME280;32866;50.160;14.768;2022-09-24T06:08:30;99232.59;;;6.04;100.00
46876;BME280;32866;50.160;14.768;2022-09-24T06:11:05;99228.59;;;6.12;100.00
46876;BME280;32866;50.160;14.768;2022-09-24T06:13:31;99244.44;;;6.17;100.00
46876;BME280;32866;50.160;14.768;2022-09-24T06:16:07;99250.50;;;6.28;100.00
46876;BME280;32866;50.160;14.768;2022-09-24T06:18:37;99255.94;;;6.28;100.00
46876;BME280;32866;50.160;14.768;2022-09-24T06:21:14;99263.19;;;6.39;100.00
46876;BME280;32866;50.160;14.768;2022-09-24T06:23:41;99259.38;;;6.32;100.00
46876;BME280;32866;50.160;14.768;2022-09-24T06:26:09;99253.34;;;6.45;100.00
46876;BME280;32866;50.160;14.768;2022-09-24T06:28:36;99251.75;;;6.47;100.00
46876;BME280;32866;50.160;14.768;2022-09-24T06:31:02;99257.81;;;6.59;100.00
46876;BME280;32866;50.160;14.768;2022-09-24T06:33:27;99205.75;;;6.29;100.00
46876;BME280;32866;50.160;14.768;2022-09-24T06:35:54;99252.31;;;6.62;100.00
46876;BME280;32866;50.160;14.768;2022-09-24T06:38:23;99250.28;;;6.66;100.00
46876;BME280;32866;50.160;14.768;2022-09-24T06:40:48;99223.84;;;6.67;100.00
46876;BME280;32866;50.160;14.768;2022-09-24T06:43:14;99233.59;;;6.88;100.00
46876;BME280;32866;50.160;14.768;2022-09-24T06:45:40;99200.56;;;6.62;100.00
46876;BME280;32866;50.160;14.768;2022-09-24T06:48:10;99247.31;;;7.04;100.00
46876;BME280;32866;50.160;14.768;2022-09-24T06:50:39;99247.09;;;7.15;100.00
46876;BME280;32866;50.160;14.768;2022-09-24T06:53:06;99253.97;;;7.23;100.00
46876;BME280;32866;50.160;14.768;2022-09-24T06:58:09;99257.03;;;7.46;100.00
46876;BME280;32866;50.160;14.768;2022-09-24T07:00:36;99249.16;;;7.51;100.00
46876;BME280;32866;50.160;14.768;2022-09-24T07:03:01;99253.34;;;7.56;100.00
46876;BME280;32866;50.160;14.768;2022-09-24T07:05:27;99251.47;;;7.53;100.00
46876;BME280;32866;50.160;14.768;2022-09-24T07:07:52;99255.50;;;7.65;100.00
46876;BME280;32866;50.160;14.768;2022-09-24T07:10:17;99237.81;;;7.53;100.00
46876;BME280;32866;50.160;14.768;2022-09-24T07:12:43;99241.13;;;7.80;100.00
46876;BME280;32866;50.160;14.768;2022-09-24T07:15:09;99241.34;;;7.90;100.00
46876;BME280;32866;50.160;14.768;2022-09-24T07:17:34;99244.34;;;7.95;100.00
46876;BME280;32866;50.160;14.768;2022-09-24T07:20:00;99234.13;;;8.16;100.00
46876;BME280;32866;50.160;14.768;2022-09-24T07:22:26;99245.25;;;8.42;100.00
46876;BME280;32866;50.160;14.768;2022-09-24T07:24:51;99219.03;;;8.28;100.00
46876;BME280;32866;50.160;14.768;2022-09-24T07:27:17;99249.09;;;8.44;100.00
46876;BME280;32866;50.160;14.768;2022-09-24T07:29:45;99218.03;;;8.38;100.00
46876;BME280;32866;50.160;14.768;2022-09-24T07:32:10;99249.81;;;8.65;100.00
46876;BME280;32866;50.160;14.768;2022-09-24T07:34:36;99237.09;;;8.58;100.00
46876;BME280;32866;50.160;14.768;2022-09-24T07:37:01;99236.47;;;8.67;100.00
46876;BME280;32866;50.160;14.768;2022-09-24T07:39:26;99209.91;;;8.84;100.00
46876;BME280;32866;50.160;14.768;2022-09-24T07:41:52;99230.91;;;9.45;100.00
46876;BME280;32866;50.160;14.768;2022-09-24T07:44:18;99244.56;;;9.88;100.00
46876;BME280;32866;50.160;14.768;2022-09-24T07:46:50;99232.50;;;9.72;100.00
46876;BME280;32866;50.160;14.768;2022-09-24T07:49:15;99257.16;;;10.11;100.00
46876;BME280;32866;50.160;14.768;2022-09-24T07:51:41;99243.38;;;10.53;100.00
46876;BME280;32866;50.160;14.768;2022-09-24T07:54:06;99243.41;;;10.75;100.00
46876;BME280;32866;50.160;14.768;2022-09-24T07:56:32;99249.59;;;11.01;100.00
46876;BME280;32866;50.160;14.768;2022-09-24T07:58:57;99245.91;;;11.17;100.00
46876;BME280;32866;50.160;14.768;2022-09-24T08:01:23;99242.47;;;11.26;100.00
46876;BME280;32866;50.160;14.768;2022-09-24T08:03:50;99238.09;;;10.93;100.00
46876;BME280;32866;50.160;14.768;2022-09-24T08:06:15;99207.63;;;10.44;100.00
46876;BME280;32866;50.160;14.768;2022-09-24T08:08:41;99251.47;;;10.44;100.00
46876;BME280;32866;50.160;14.768;2022-09-24T08:11:10;99254.84;;;10.22;100.00
46876;BME280;32866;50.160;14.768;2022-09-24T08:13:36;99243.13;;;10.47;100.00
46876;BME280;32866;50.160;14.768;2022-09-24T08:16:02;99250.06;;;10.39;100.00
46876;BME280;32866;50.160;14.768;2022-09-24T08:18:29;99251.38;;;10.34;100.00
46876;BME280;32866;50.160;14.768;2022-09-24T08:20:56;99258.44;;;10.70;100.00
46876;BME280;32866;50.160;14.768;2022-09-24T08:23:22;99223.56;;;10.36;100.00
46876;BME280;32866;50.160;14.768;2022-09-24T08:25:47;99253.44;;;10.56;100.00
46876;BME280;32866;50.160;14.768;2022-09-24T08:28:13;99258.06;;;10.94;100.00
46876;BME280;32866;50.160;14.768;2022-09-24T08:30:41;99256.56;;;10.80;100.00
46876;BME280;32866;50.160;14.768;2022-09-24T08:33:08;99262.47;;;10.91;100.00
46876;BME280;32866;50.160;14.768;2022-09-24T08:35:33;99268.19;;;10.84;100.00
46876;BME280;32866;50.160;14.768;2022-09-24T08:37:59;99273.88;;;10.77;100.00
46876;BME280;32866;50.160;14.768;2022-09-24T08:40:26;99272.16;;;11.05;100.00
46876;BME280;32866;50.160;14.768;2022-09-24T08:45:47;99244.75;;;11.05;100.00
46876;BME280;32866;50.160;14.768;2022-09-24T08:48:35;99262.06;;;11.37;100.00
46876;BME280;32866;50.160;14.768;2022-09-24T08:51:07;99252.19;;;11.62;100.00
46876;BME280;32866;50.160;14.768;2022-09-24T08:54:07;99265.41;;;11.85;100.00
46876;BME280;32866;50.160;14.768;2022-09-24T08:56:36;99273.09;;;11.68;100.00
46876;BME280;32866;50.160;14.768;2022-09-24T08:59:25;99263.16;;;11.62;100.00
46876;BME280;32866;50.160;14.768;2022-09-24T09:07:20;99239.28;;;11.72;100.00
46876;BME280;32866;50.160;14.768;2022-09-24T09:09:53;99256.19;;;11.92;100.00
46876;BME280;32866;50.160;14.768;2022-09-24T09:12:33;99261.78;;;11.88;100.00
46876;BME280;32866;50.160;14.768;2022-09-24T09:15:03;99268.00;;;12.11;100.00
46876;BME280;32866;50.160;14.768;2022-09-24T09:19:57;99224.25;;;12.17;100.00
46876;BME280;32866;50.160;14.768;2022-09-24T09:22:28;99257.19;;;12.57;100.00
46876;BME280;32866;50.160;14.768;2022-09-24T09:25:01;99236.06;;;12.36;100.00
46876;BME280;32866;50.160;14.768;2022-09-24T09:27:27;99252.25;;;12.34;100.00
46876;BME280;32866;50.160;14.768;2022-09-24T09:29:56;99257.34;;;12.54;100.00
46876;BME280;32866;50.160;14.768;2022-09-24T09:32:56;99269.03;;;12.36;100.00
46876;BME280;32866;50.160;14.768;2022-09-24T09:35:35;99265.97;;;12.34;100.00
46876;BME280;32866;50.160;14.768;2022-09-24T09:43:26;99248.38;;;12.99;100.00
46876;BME280;32866;50.160;14.768;2022-09-24T09:46:17;99250.53;;;13.05;100.00
46876;BME280;32866;50.160;14.768;2022-09-24T09:48:47;99244.09;;;12.89;100.00
46876;BME280;32866;50.160;14.768;2022-09-24T09:51:20;99240.44;;;13.02;100.00
46876;BME280;32866;50.160;14.768;2022-09-24T09:53:56;99238.13;;;13.18;100.00
46876;BME280;32866;50.160;14.768;2022-09-24T09:56:27;99232.94;;;13.58;100.00
46876;BME280;32866;50.160;14.768;2022-09-24T09:59:05;99231.41;;;13.99;100.00
46876;BME280;32866;50.160;14.768;2022-09-24T10:01:33;99232.06;;;14.27;100.00
46876;BME280;32866;50.160;14.768;2022-09-24T10:04:00;99226.91;;;14.44;98.76
46876;BME280;32866;50.160;14.768;2022-09-24T10:06:34;99227.44;;;14.67;96.48
46876;BME280;32866;50.160;14.768;2022-09-24T10:09:15;99214.53;;;14.73;96.64
46876;BME280;32866;50.160;14.768;2022-09-24T10:11:41;99198.31;;;14.66;94.16
46876;BME280;32866;50.160;14.768;2022-09-24T10:14:12;99219.16;;;15.06;95.22
46876;BME280;32866;50.160;14.768;2022-09-24T10:16:42;99195.88;;;15.07;90.94
46876;BME280;32866;50.160;14.768;2022-09-24T10:19:21;99219.97;;;15.51;92.60
46876;BME280;32866;50.160;14.768;2022-09-24T10:21:48;99213.91;;;15.77;84.32
46876;BME280;32866;50.160;14.768;2022-09-24T10:24:19;99223.22;;;15.94;93.57
46876;BME280;32866;50.160;14.768;2022-09-24T10:26:46;99224.63;;;16.05;90.09
46876;BME280;32866;50.160;14.768;2022-09-24T10:29:16;99210.16;;;16.30;91.35
46876;BME280;32866;50.160;14.768;2022-09-24T10:32:02;99205.75;;;16.39;89.24
46876;BME280;32866;50.160;14.768;2022-09-24T10:34:28;99218.94;;;16.64;84.59
46876;BME280;32866;50.160;14.768;2022-09-24T10:36:58;99216.84;;;16.80;79.88
46876;BME280;32866;50.160;14.768;2022-09-24T10:39:23;99182.69;;;16.83;81.39
46876;BME280;32866;50.160;14.768;2022-09-24T10:41:50;99208.88;;;17.34;84.07
46876;BME280;32866;50.160;14.768;2022-09-24T10:44:16;99198.16;;;17.74;81.96
46876;BME280;32866;50.160;14.768;2022-09-24T10:47:16;99206.38;;;17.89;78.49
46876;BME280;32866;50.160;14.768;2022-09-24T10:49:59;99209.94;;;17.95;78.54
46876;BME280;32866;50.160;14.768;2022-09-24T11:00:49;99194.97;;;18.73;76.21
46876;BME280;32866;50.160;14.768;2022-09-24T11:11:13;99185.06;;;19.55;73.80
46876;BME280;32866;50.160;14.768;2022-09-24T11:16:25;99185.56;;;19.53;72.88
46876;BME280;32866;50.160;14.768;2022-09-24T11:19:12;99182.28;;;19.38;68.66
46876;BME280;32866;50.160;14.768;2022-09-24T11:21:55;99179.78;;;19.62;69.36
46876;BME280;32866;50.160;14.768;2022-09-24T11:27:34;99177.28;;;19.76;71.56
46876;BME280;32866;50.160;14.768;2022-09-24T11:30:12;99168.63;;;20.08;66.54
46876;BME280;32866;50.160;14.768;2022-09-24T11:38:59;99159.25;;;20.11;69.08
46876;BME280;32866;50.160;14.768;2022-09-24T11:45:03;99165.72;;;20.53;70.16
46876;BME280;32866;50.160;14.768;2022-09-24T11:50:50;99162.59;;;20.68;64.02
46876;BME280;32866;50.160;14.768;2022-09-24T11:56:17;99127.03;;;20.44;63.94
46876;BME280;32866;50.160;14.768;2022-09-24T11:58:49;99143.81;;;20.80;58.65
46876;BME280;32866;50.160;14.768;2022-09-24T12:01:27;99147.56;;;20.88;59.29
46876;BME280;32866;50.160;14.768;2022-09-24T12:03:59;99138.34;;;20.68;57.89
46876;BME280;32866;50.160;14.768;2022-09-24T12:06:32;99123.41;;;20.71;62.67
46876;BME280;32866;50.160;14.768;2022-09-24T12:09:30;99139.16;;;20.99;62.45
46876;BME280;32866;50.160;14.768;2022-09-24T12:12:25;99151.25;;;20.60;57.05
46876;BME280;32866;50.160;14.768;2022-09-24T12:14:58;99134.31;;;20.52;59.50
46876;BME280;32866;50.160;14.768;2022-09-24T12:17:48;99133.41;;;20.33;58.86
46876;BME280;32866;50.160;14.768;2022-09-24T12:20:22;99131.72;;;20.01;61.25
46876;BME280;32866;50.160;14.768;2022-09-24T12:22:56;99114.84;;;19.54;58.31
46876;BME280;32866;50.160;14.768;2022-09-24T12:25:26;99123.94;;;19.55;58.72
46876;BME280;32866;50.160;14.768;2022-09-24T12:27:54;99098.94;;;19.38;57.34
46876;BME280;32866;50.160;14.768;2022-09-24T12:30:44;99127.19;;;19.87;56.36
46876;BME280;32866;50.160;14.768;2022-09-24T12:36:18;99106.81;;;20.37;57.93
46876;BME280;32866;50.160;14.768;2022-09-24T12:38:52;99130.69;;;20.80;57.11
46876;BME280;32866;50.160;14.768;2022-09-24T12:44:14;99132.66;;;21.27;54.30
46876;BME280;32866;50.160;14.768;2022-09-24T12:46:56;99137.81;;;21.11;50.29
46876;BME280;32866;50.160;14.768;2022-09-24T12:52:17;99119.03;;;20.82;52.99
46876;BME280;32866;50.160;14.768;2022-09-24T12:54:43;99103.38;;;20.14;51.99
46876;BME280;32866;50.160;14.768;2022-09-24T12:57:16;99116.31;;;20.00;54.97
46876;BME280;32866;50.160;14.768;2022-09-24T13:02:24;99120.94;;;19.36;57.01
46876;BME280;32866;50.160;14.768;2022-09-24T13:05:04;99110.06;;;19.49;57.12
46876;BME280;32866;50.160;14.768;2022-09-24T13:07:40;99129.00;;;19.51;54.51
46876;BME280;32866;50.160;14.768;2022-09-24T13:12:41;99088.06;;;19.68;58.40
46876;BME280;32866;50.160;14.768;2022-09-24T13:17:42;99104.88;;;20.21;54.05
46876;BME280;32866;50.160;14.768;2022-09-24T13:20:24;99114.53;;;19.97;52.34
46876;BME280;32866;50.160;14.768;2022-09-24T13:22:59;99108.78;;;19.56;55.60
46876;BME280;32866;50.160;14.768;2022-09-24T13:25:35;99093.09;;;19.75;54.66
46876;BME280;32866;50.160;14.768;2022-09-24T13:28:02;99105.13;;;20.17;55.82
46876;BME280;32866;50.160;14.768;2022-09-24T13:30:43;99100.63;;;19.97;54.91
46876;BME280;32866;50.160;14.768;2022-09-24T13:33:30;99092.88;;;19.51;54.80
46876;BME280;32866;50.160;14.768;2022-09-24T13:36:12;99076.44;;;19.47;57.58
46876;BME280;32866;50.160;14.768;2022-09-24T13:41:34;99099.44;;;19.48;58.67
46876;BME280;32866;50.160;14.768;2022-09-24T13:44:38;99101.22;;;19.45;56.81
46876;BME280;32866;50.160;14.768;2022-09-24T13:47:26;99088.06;;;19.68;60.89
46876;BME280;32866;50.160;14.768;2022-09-24T13:52:47;99079.75;;;19.62;56.25
46876;BME280;32866;50.160;14.768;2022-09-24T13:55:19;99076.69;;;19.83;56.65
46876;BME280;32866;50.160;14.768;2022-09-24T13:57:46;99052.69;;;19.57;55.21
46876;BME280;32866;50.160;14.768;2022-09-24T14:00:16;99084.00;;;19.86;55.26
46876;BME280;32866;50.160;14.768;2022-09-24T14:02:50;99058.25;;;19.63;60.05
46876;BME280;32866;50.160;14.768;2022-09-24T14:05:17;99095.38;;;19.88;55.95
46876;BME280;32866;50.160;14.768;2022-09-24T14:08:10;99087.25;;;19.96;61.36
46876;BME280;32866;50.160;14.768;2022-09-24T14:10:37;99090.56;;;19.72;57.11
46876;BME280;32866;50.160;14.768;2022-09-24T14:13:22;99083.78;;;19.44;53.38
46876;BME280;32866;50.160;14.768;2022-09-24T14:16:08;99081.28;;;19.41;56.19
46876;BME280;32866;50.160;14.768;2022-09-24T14:18:34;99049.97;;;19.18;58.05
46876;BME280;32866;50.160;14.768;2022-09-24T14:21:09;99075.47;;;19.33;58.09
46876;BME280;32866;50.160;14.768;2022-09-24T14:23:41;99063.78;;;18.72;55.96
46876;BME280;32866;50.160;14.768;2022-09-24T14:26:16;99065.25;;;18.51;56.54
46876;BME280;32866;50.160;14.768;2022-09-24T14:28:45;99062.03;;;18.64;58.45
46876;BME280;32866;50.160;14.768;2022-09-24T14:31:10;99063.97;;;18.46;56.52
46876;BME280;32866;50.160;14.768;2022-09-24T14:33:36;99067.25;;;18.39;56.00